ilmateenistus.ee keskkonnaagentuur.ee
EETN Tallinna lennuväli
FTEO31 EETN 220500
TAF EETN 220530Z 2206/2306 30020G32KT 9999 BKN030 TEMPO 2206/2212
    BKN015 SCT020CB PROB40 TEMPO 2206/2212 4000 SHSNRA BECMG 2212/2214
    34016G26KT BECMG 2220/2222 32012KT PROB40 TEMPO 2220/2224 SCT020CB=

METAR EETN 220850Z 32018G28KT 9999 SCT026 02/M03 Q1005 R08/12//95 NOSIG=
Tallinna lennuväli
EEKA Kärdla lennuväli
FCEO32 EETN 220400 AAA
TAF AMD EEKA 220800Z 2205/2211 CNL=

METAR EEKA 220850Z 32022G32KT 9999 SCT017 BKN076 03/M01 Q1008=
Kärdla lennuväli
EEKE Kuressaare lennuväli
FCEO32 EETN 220600
TAF EEKE 220600Z 2207/2213 32016KT 9999 SCT030 TEMPO 2207/2213
    33020G32KT SCT015CB BKN025 PROB40 TEMPO 2207/2210 4000 SHRASN=

METAR EEKE 220850Z 33012KT 280V020 9999 FEW040 BKN045 04/M03 Q1009 R17/190095=
Kuressaare lennuväli
EEPU Pärnu lennuväli
METAR EEPU 220850Z 31015KT 280V350 9999 FEW008 BKN038 03/M02 Q1006=
Pärnu lennuväli
EETU Tartu lennuväli
METAR EETU 220850Z AUTO 32006KT 260V350 9999 FEW032/// BKN055/// 01/M02 Q1003 RESG REUP=
Tartu lennuväli
EEEI Ämari lennuväli
METAR EEEI 220850Z 30017KT 260V320 9999 SCT031 03/M03 Q1005 R24/090095 TEMPO 31018G28KT=
Ämari lennuväli